Tosei — JK5053 — position and weather

sailwx.info

Track history (hours):
 
Tides and Currents Weather Stations Pressure Air Temp Water Temp Dewpoint Dewpoint Depression Visibility Wind Speed Wind Dir Waves Ship Positions

Tosei

Last reported at 2018-Jun-19 02:26 UTC. Time now 2018-Jun-19 10:28 UTC.
Position N 35°15' E 139°46'.

Length 85 m; draft 4 m.

MMSI: 431400992.

Date/timePositionNaut miles runAvg speedWind from/ knotsBaromVisibWave heightAir tempDewpointWater temp
2018-Jun-19 02:26N 35°15' E 139°46'613.0
2018-Jun-19 02:00N 35°19' E 139°43'612.4
2018-Jun-19 01:31N 35°25' E 139°45'814.9
2018-Jun-19 01:00N 35°30' E 139°52'5 0.1
2018-Jun-17 12:12N 35°33' E 139°57'314.1
2018-Jun-17 12:00N 35°31' E 139°55'714.1
2018-Jun-17 11:30N 35°26' E 139°49'613.0
2018-Jun-17 11:01N 35°21' E 139°45'611.9
2018-Jun-17 10:31N 35°15' E 139°47'  
2018-Jun-13 08:38N 35°15' E 139°46'213.2
2018-Jun-13 08:30N 35°17' E 139°45'612.6
2018-Jun-13 08:00N 35°23' E 139°42'713.3
2018-Jun-13 07:30N 35°28' E 139°48'1014.0
2018-Jun-13 06:46N 35°35' E 139°56'  
2018-Jun-09 21:19N 35°34' E 139°56'413.1
2018-Jun-09 21:00N 35°31' E 139°53'713.0
2018-Jun-09 20:30N 35°26' E 139°48'713.2
2018-Jun-09 20:00N 35°20' E 139°44'612.0
2018-Jun-09 19:30N 35°15' E 139°47'713.0
2018-Jun-09 18:58N 35°08' E 139°46'  
Track history (hours):
 
Tides and Currents Weather Stations Pressure Air Temp Water Temp Dewpoint Dewpoint Depression Visibility Wind Speed Wind Dir Waves Ship Positions

Tosei

Last reported at 2018-Jun-19 02:26 UTC. Time now 2018-Jun-19 10:28 UTC.
Position N 35°15' E 139°46'.

Length 85 m; draft 4 m.

MMSI: 431400992.

Date/timePositionNaut miles runAvg speedWind from/ knotsBaromVisibWave heightAir tempDewpointWater temp
2018-Jun-19 02:26N 35°15' E 139°46'613.0
2018-Jun-19 02:00N 35°19' E 139°43'612.4
2018-Jun-19 01:31N 35°25' E 139°45'814.9
2018-Jun-19 01:00N 35°30' E 139°52'5 0.1
2018-Jun-17 12:12N 35°33' E 139°57'314.1
2018-Jun-17 12:00N 35°31' E 139°55'714.1
2018-Jun-17 11:30N 35°26' E 139°49'613.0
2018-Jun-17 11:01N 35°21' E 139°45'611.9
2018-Jun-17 10:31N 35°15' E 139°47'  
2018-Jun-13 08:38N 35°15' E 139°46'213.2
2018-Jun-13 08:30N 35°17' E 139°45'612.6
2018-Jun-13 08:00N 35°23' E 139°42'713.3
2018-Jun-13 07:30N 35°28' E 139°48'1014.0
2018-Jun-13 06:46N 35°35' E 139°56'  
2018-Jun-09 21:19N 35°34' E 139°56'413.1
2018-Jun-09 21:00N 35°31' E 139°53'713.0
2018-Jun-09 20:30N 35°26' E 139°48'713.2
2018-Jun-09 20:00N 35°20' E 139°44'612.0
2018-Jun-09 19:30N 35°15' E 139°47'713.0
2018-Jun-09 18:58N 35°08' E 139°46'  

Dump ship's entire track history